createdAt,value
2023-05-04T00:00:04.314Z,-23530.13
2023-05-04T00:02:07.721Z,-23528.38
2023-05-04T00:04:10.673Z,-23525.06
2023-05-04T00:06:13.547Z,-23528.06
2023-05-04T00:08:17.642Z,-23526.94
2023-05-04T00:10:20.468Z,-23525.84
2023-05-04T00:12:23.109Z,-23527.44
2023-05-04T00:14:25.818Z,-23525.22
2023-05-04T00:16:28.585Z,-23525.22
2023-05-04T00:18:31.392Z,-23524.56
2023-05-04T00:20:34.257Z,-23523.31
2023-05-04T00:22:36.959Z,-23523.47
2023-05-04T00:24:41.016Z,-23523.78
2023-05-04T00:26:45.553Z,-23522.69
2023-05-04T00:28:48.346Z,-23523.16
2023-05-04T00:30:51.116Z,-23523.00
2023-05-04T00:32:53.890Z,-23520.16
2023-05-04T00:34:56.642Z,-23521.72
2023-05-04T00:36:59.353Z,-23519.03
2023-05-04T00:39:02.143Z,-23518.25
2023-05-04T00:41:06.324Z,-23518.09
2023-05-04T00:43:09.143Z,-23515.72
2023-05-04T00:45:12.327Z,-23515.41
2023-05-04T00:47:16.844Z,-23513.81
2023-05-04T00:49:21.445Z,-23513.97
2023-05-04T00:51:27.014Z,-23512.72
2023-05-04T00:53:30.028Z,-23512.22
2023-05-04T00:55:33.400Z,-23513.66
2023-05-04T00:57:38.142Z,-23511.28
2023-05-04T00:59:41.073Z,-23508.75
2023-05-04T01:01:43.787Z,-23511.91
2023-05-04T01:03:46.597Z,-23510.31
2023-05-04T01:05:57.385Z,-23509.69
2023-05-04T01:08:05.320Z,-23513.50
2023-05-04T01:10:13.218Z,-23507.63
2023-05-04T01:12:21.144Z,-23506.38
2023-05-04T01:14:26.579Z,-23506.22
2023-05-04T01:16:29.680Z,-23505.25
2023-05-04T01:18:32.951Z,-23504.00
2023-05-04T01:20:36.297Z,-23501.47
2023-05-04T01:22:40.498Z,-23503.19
2023-05-04T01:24:43.144Z,-23504.16
2023-05-04T01:26:48.001Z,-23504.63
2023-05-04T01:28:53.142Z,-23502.09
2023-05-04T01:30:59.214Z,-23503.84
2023-05-04T01:33:03.296Z,-23494.50
2023-05-04T01:35:06.589Z,-23495.75
2023-05-04T01:37:09.853Z,-23497.97
2023-05-04T01:39:13.907Z,-23494.00
2023-05-04T01:41:16.702Z,-23496.38
2023-05-04T01:43:19.427Z,-23497.03
2023-05-04T01:45:22.523Z,-23494.81
2023-05-04T01:47:25.419Z,-23494.50
2023-05-04T01:49:28.275Z,-23499.41
2023-05-04T01:51:31.017Z,-23500.19
2023-05-04T01:53:33.785Z,-23499.56
2023-05-04T01:55:38.057Z,-23497.66
2023-05-04T01:57:40.993Z,-23496.38
2023-05-04T01:59:43.967Z,-23492.59
2023-05-04T02:01:46.958Z,-23494.50
2023-05-04T02:03:50.046Z,-23493.06
2023-05-04T02:05:52.940Z,-23492.25
2023-05-04T02:07:55.814Z,-23490.03
2023-05-04T02:09:58.573Z,-23489.91
2023-05-04T02:12:02.848Z,-23487.50
2023-05-04T02:14:05.779Z,-23490.38
2023-05-04T02:16:09.295Z,-23486.25
2023-05-04T02:18:12.303Z,-23489.72
2023-05-04T02:20:15.916Z,-23486.72
2023-05-04T02:22:18.694Z,-23483.38
2023-05-04T02:24:21.666Z,-23482.13
2023-05-04T02:26:24.405Z,-23480.22
2023-05-04T02:28:28.480Z,-23480.22
2023-05-04T02:30:31.457Z,-23479.25
2023-05-04T02:32:34.294Z,-23481.81
2023-05-04T02:34:37.501Z,-23479.91
2023-05-04T02:36:40.230Z,-23478.00
2023-05-04T02:38:43.120Z,-23478.31
2023-05-04T02:40:45.912Z,-23475.47
2023-05-04T02:42:48.610Z,-23472.28
2023-05-04T02:44:52.742Z,-23468.16
2023-05-04T02:46:55.493Z,-23469.75
2023-05-04T02:48:58.147Z,-23465.47
2023-05-04T02:51:00.848Z,-23475.78
2023-05-04T02:53:03.652Z,-23474.19
2023-05-04T02:55:07.297Z,-23475.16
2023-05-04T02:57:10.053Z,-23474.66
2023-05-04T02:59:12.907Z,-23476.72
2023-05-04T03:01:17.300Z,-23473.88
2023-05-04T03:03:19.993Z,-23475.16
2023-05-04T03:05:23.037Z,-23477.84
2023-05-04T03:07:25.752Z,-23480.22
2023-05-04T03:09:28.540Z,-23481.97
2023-05-04T03:11:31.348Z,-23483.72
2023-05-04T03:13:33.995Z,-23481.31
2023-05-04T03:15:36.732Z,-23476.72
2023-05-04T03:17:41.033Z,-23471.66
2023-05-04T03:19:43.928Z,-23473.88
2023-05-04T03:21:46.982Z,-23465.31
2023-05-04T03:23:49.714Z,-23469.13
2023-05-04T03:25:52.490Z,-23464.38
2023-05-04T03:27:55.538Z,-23462.94
2023-05-04T03:29:58.293Z,-23460.09
2023-05-04T03:32:01.181Z,-23456.75
2023-05-04T03:34:05.383Z,-23452.00
2023-05-04T03:36:08.355Z,-23454.53
2023-05-04T03:38:11.757Z,-23452.94
2023-05-04T03:40:15.492Z,-23454.22
2023-05-04T03:42:18.315Z,-23450.56
2023-05-04T03:44:21.141Z,-23447.53
2023-05-04T03:46:23.935Z,-23444.22
2023-05-04T03:48:26.923Z,-23442.94
2023-05-04T03:50:31.826Z,-23445.66
2023-05-04T03:52:34.558Z,-23446.28
2023-05-04T03:54:37.234Z,-23446.91
2023-05-04T03:56:40.060Z,-23448.81
2023-05-04T03:58:42.869Z,-23447.06
2023-05-04T04:00:45.666Z,-23445.47
2023-05-04T04:02:48.548Z,-23445.66
2023-05-04T04:04:51.285Z,-23443.75
2023-05-04T04:06:55.303Z,-23450.25
2023-05-04T04:08:58.015Z,-23452.63
2023-05-04T04:11:00.706Z,-23452.31
2023-05-04T04:13:03.510Z,-23448.81
2023-05-04T04:15:07.132Z,-23456.13
2023-05-04T04:17:10.064Z,-23457.22
2023-05-04T04:19:13.166Z,-23457.84
2023-05-04T04:21:16.175Z,-23460.56
2023-05-04T04:23:20.359Z,-23454.84
2023-05-04T04:25:23.313Z,-23458.03
2023-05-04T04:27:26.527Z,-23460.88
2023-05-04T04:29:29.243Z,-23460.25
2023-05-04T04:31:32.031Z,-23458.66
2023-05-04T04:33:35.062Z,-23458.19
2023-05-04T04:35:38.040Z,-23459.13
2023-05-04T04:37:40.850Z,-23457.53
2023-05-04T04:39:44.960Z,-23462.78
2023-05-04T04:41:47.709Z,-23466.25
2023-05-04T04:43:50.576Z,-23471.66
2023-05-04T04:45:53.967Z,-23475.16
2023-05-04T04:47:56.772Z,-23482.75
2023-05-04T04:50:00.654Z,-23487.19
2023-05-04T04:52:08.121Z,-23482.75
2023-05-04T04:54:11.342Z,-23486.88
2023-05-04T04:56:18.415Z,-23481.16
2023-05-04T04:58:21.163Z,-23486.88
2023-05-04T05:00:24.139Z,-23491.94
2023-05-04T05:02:28.081Z,-23484.81
2023-05-04T05:04:30.940Z,-23484.03
2023-05-04T05:06:33.675Z,-23485.44
2023-05-04T05:08:36.447Z,-23480.69
2023-05-04T05:10:39.850Z,-23491.78
2023-05-04T05:12:44.591Z,-23489.09
2023-05-04T05:14:47.724Z,-23483.53
2023-05-04T05:16:50.929Z,-23490.38
2023-05-04T05:18:53.698Z,-23492.25
2023-05-04T05:20:56.488Z,-23493.06
2023-05-04T05:22:59.206Z,-23501.78
2023-05-04T05:25:01.872Z,-23501.47
2023-05-04T05:27:04.710Z,-23502.41
2023-05-04T05:29:08.919Z,-23505.25
2023-05-04T05:31:11.730Z,-23510.81
2023-05-04T05:33:14.560Z,-23510.31
2023-05-04T05:35:17.461Z,-23514.44
2023-05-04T05:37:20.346Z,-23513.19
2023-05-04T05:39:23.740Z,-23513.81
2023-05-04T05:41:26.563Z,-23521.88
2023-05-04T05:43:29.250Z,-23523.16
2023-05-04T05:45:33.453Z,-23521.72
2023-05-04T05:47:36.830Z,-23522.03
2023-05-04T05:49:39.774Z,-23527.13
2023-05-04T05:51:42.752Z,-23535.03
2023-05-04T05:53:46.550Z,-23534.72
2023-05-04T05:55:49.422Z,-23535.34
2023-05-04T05:57:52.118Z,-23540.25
2023-05-04T05:59:55.301Z,-23542.94
2023-05-04T06:02:00.062Z,-23545.47
2023-05-04T06:04:03.240Z,-23552.28
2023-05-04T06:06:06.418Z,-23552.13
2023-05-04T06:08:09.288Z,-23571.41
2023-05-04T06:10:12.125Z,-23575.53
2023-05-04T06:12:16.993Z,-23578.06
2023-05-04T06:14:20.034Z,-23595.13
2023-05-04T06:16:22.860Z,-23586.91
2023-05-04T06:18:27.024Z,-23592.44
2023-05-04T06:20:30.082Z,-23623.56
2023-05-04T06:22:32.997Z,-23620.09
2023-05-04T06:24:35.830Z,-23621.34
2023-05-04T06:26:38.584Z,-23616.91
2023-05-04T06:28:41.287Z,-23617.88
2023-05-04T06:30:44.920Z,-23626.06
2023-05-04T06:32:47.747Z,-23631.13
2023-05-04T06:34:54.031Z,-23645.97
2023-05-04T06:36:56.681Z,-23642.16
2023-05-04T06:38:59.441Z,-23658.25
2023-05-04T06:41:02.480Z,-23648.47
2023-05-04T06:43:05.239Z,-23658.41
2023-05-04T06:45:09.259Z,-23656.84
2023-05-04T06:47:12.468Z,-23668.34
2023-05-04T06:49:15.202Z,-23684.59
2023-05-04T06:51:19.195Z,-23674.34
2023-05-04T06:53:22.243Z,-23663.47
2023-05-04T06:55:24.905Z,-23671.81
2023-05-04T06:57:27.856Z,-23667.25
2023-05-04T06:59:30.766Z,-23657.63
2023-05-04T07:01:33.565Z,-23670.56
2023-05-04T07:03:37.017Z,-23707.09
2023-05-04T07:05:39.832Z,-23690.41
2023-05-04T07:07:43.876Z,-23730.25
2023-05-04T07:09:47.853Z,-23688.69
2023-05-04T07:11:50.605Z,-23765.31
2023-05-04T07:13:53.277Z,-23770.81
2023-05-04T07:15:56.168Z,-23763.09
2023-05-04T07:17:58.966Z,-23764.38
2023-05-04T07:20:03.353Z,-23748.94
2023-05-04T07:22:06.429Z,-23735.28
2023-05-04T07:24:10.706Z,-23762.16
2023-05-04T07:26:13.430Z,-23754.00
2023-05-04T07:28:16.573Z,-23740.63
2023-05-04T07:30:20.842Z,-23768.44
2023-05-04T07:32:23.682Z,-23795.94
2023-05-04T07:34:37.834Z,-23748.94
2023-05-04T07:36:44.973Z,-23804.41
2023-05-04T07:38:48.667Z,-23763.41
2023-05-04T07:40:52.791Z,-23809.28
2023-05-04T07:42:56.371Z,-23801.09
2023-05-04T07:44:59.231Z,-23793.88
2023-05-04T07:47:02.608Z,-23776.31
2023-05-04T07:49:05.977Z,-23795.94
2023-05-04T07:51:13.973Z,-23781.00
2023-05-04T07:53:16.681Z,-23792.94
2023-05-04T07:55:19.934Z,-23817.59
2023-05-04T07:57:23.985Z,-23832.66
2023-05-04T07:59:26.956Z,-23811.16
2023-05-04T08:01:30.029Z,-23810.53
2023-05-04T08:03:32.879Z,-23807.06
2023-05-04T08:05:35.643Z,-23816.66
2023-05-04T08:07:38.381Z,-23805.34
2023-05-04T08:09:41.016Z,-23819.78
2023-05-04T08:11:43.700Z,-23829.50
2023-05-04T08:13:48.031Z,-23829.19
2023-05-04T08:15:50.832Z,-23823.69
2023-05-04T08:17:54.808Z,-23825.75
2023-05-04T08:19:57.573Z,-23808.66
2023-05-04T08:22:00.429Z,-23776.63
2023-05-04T08:24:04.219Z,-23778.81
2023-05-04T08:26:07.266Z,-23804.25
2023-05-04T08:28:09.940Z,-23809.28
2023-05-04T08:30:14.933Z,-23823.06
2023-05-04T08:32:17.662Z,-23819.31
2023-05-04T08:34:20.442Z,-23810.38
2023-05-04T08:36:23.105Z,-23782.75
2023-05-04T08:38:25.863Z,-23792.16
2023-05-04T08:40:28.834Z,-23798.44
2023-05-04T08:42:33.398Z,-23781.34
2023-05-04T08:44:36.619Z,-23800.78
2023-05-04T08:46:41.343Z,-23810.53
2023-05-04T08:48:44.839Z,-23816.47
2023-05-04T08:50:48.229Z,-23876.97
2023-05-04T08:52:52.390Z,-23832.31
2023-05-04T08:54:56.816Z,-23861.31
2023-05-04T08:57:00.098Z,-23851.91
2023-05-04T08:59:03.995Z,-23872.59
2023-05-04T09:01:08.391Z,-23823.69
2023-05-04T09:03:14.353Z,-23847.84
2023-05-04T09:05:17.527Z,-23853.47
2023-05-04T09:07:21.217Z,-23852.06
2023-05-04T09:09:24.012Z,-23899.19
2023-05-04T09:11:26.911Z,-23845.34
2023-05-04T09:13:29.681Z,-23831.53
2023-05-04T09:15:33.049Z,-23829.19
2023-05-04T09:17:42.057Z,-23853.94
2023-05-04T09:20:01.310Z,-23876.34
2023-05-04T09:22:15.586Z,-23882.91
2023-05-04T09:24:27.515Z,-23878.06
2023-05-04T09:26:31.149Z,-23886.38
2023-05-04T09:28:39.199Z,-23897.31
2023-05-04T09:30:46.765Z,-23881.66
2023-05-04T09:32:50.030Z,-23888.88
2023-05-04T09:34:55.197Z,-23848.31
2023-05-04T09:37:02.072Z,-23877.91
2023-05-04T09:39:11.579Z,-23906.38
2023-05-04T09:41:14.614Z,-23901.22
2023-05-04T09:43:17.410Z,-23881.66
2023-05-04T09:45:20.370Z,-23884.03
2023-05-04T09:47:23.363Z,-23881.66
2023-05-04T09:49:33.420Z,-23920.75
2023-05-04T09:51:37.610Z,-23900.44
2023-05-04T09:53:42.042Z,-23922.63
2023-05-04T09:55:46.697Z,-23902.94
2023-05-04T09:57:51.145Z,-23930.91
2023-05-04T09:59:54.391Z,-23889.03
2023-05-04T10:02:00.506Z,-23905.13
2023-05-04T10:04:07.828Z,-23927.16
2023-05-04T10:06:12.236Z,-23931.69
2023-05-04T10:08:16.906Z,-23908.56
2023-05-04T10:10:19.634Z,-23915.91
2023-05-04T10:12:22.367Z,-23913.88
2023-05-04T10:14:25.330Z,-23963.38
2023-05-04T10:16:41.986Z,-23940.91
2023-05-04T10:19:03.021Z,-23951.06
2023-05-04T10:21:23.120Z,-23951.06
2023-05-04T10:23:50.106Z,-23911.84
2023-05-04T10:26:08.152Z,-23913.72
2023-05-04T10:28:21.172Z,-23922.63
2023-05-04T10:30:24.809Z,-23906.53
2023-05-04T10:32:27.622Z,-23871.81
2023-05-04T10:34:31.737Z,-23869.31
2023-05-04T10:36:38.768Z,-23887.31
2023-05-04T10:38:43.020Z,-23872.59
2023-05-04T10:40:48.963Z,-23866.63
2023-05-04T10:42:51.676Z,-23875.41
2023-05-04T10:44:55.933Z,-23855.06
2023-05-04T10:47:03.729Z,-23849.25
2023-05-04T10:49:16.816Z,-23863.50
2023-05-04T10:51:20.720Z,-23850.34
2023-05-04T10:53:33.053Z,-23832.81
2023-05-04T10:55:42.511Z,-23868.50
2023-05-04T10:57:50.553Z,-23871.66
2023-05-04T10:59:57.026Z,-23869.47
2023-05-04T11:02:00.599Z,-23852.06
2023-05-04T11:04:03.441Z,-23868.84
2023-05-04T11:06:16.953Z,-23854.25
2023-05-04T11:08:21.077Z,-23842.81
2023-05-04T11:10:24.925Z,-23842.50
2023-05-04T11:12:29.452Z,-23861.00
2023-05-04T11:14:32.331Z,-23869.75
2023-05-04T11:16:35.042Z,-23862.56
2023-05-04T11:18:38.447Z,-23841.25
2023-05-04T11:20:41.437Z,-23851.91
2023-05-04T11:22:44.336Z,-23853.78
2023-05-04T11:24:48.664Z,-23857.41
2023-05-04T11:26:51.529Z,-23864.13
2023-05-04T11:28:55.758Z,-23864.13
2023-05-04T11:30:58.594Z,-23863.03
2023-05-04T11:33:02.684Z,-23861.31
2023-05-04T11:35:08.913Z,-23865.38
2023-05-04T11:37:13.050Z,-23872.44
2023-05-04T11:39:15.980Z,-23855.06
2023-05-04T11:41:18.652Z,-23867.25
2023-05-04T11:43:21.933Z,-23886.38
2023-05-04T11:45:29.787Z,-23862.56
2023-05-04T11:47:32.723Z,-23883.84
2023-05-04T11:49:35.637Z,-23877.28
2023-05-04T11:51:38.342Z,-23865.69
2023-05-04T11:53:42.089Z,-23858.81
2023-05-04T11:55:44.801Z,-23886.69
2023-05-04T11:57:57.228Z,-23867.88
2023-05-04T11:59:59.857Z,-23872.75
2023-05-04T12:02:04.083Z,-23870.41
2023-05-04T12:04:07.866Z,-23876.66
2023-05-04T12:06:10.836Z,-23873.53
2023-05-04T12:08:24.010Z,-23884.78
2023-05-04T12:10:28.263Z,-23881.34
2023-05-04T12:12:36.933Z,-23890.44
2023-05-04T12:14:48.201Z,-23861.47
2023-05-04T12:16:57.853Z,-23888.88
2023-05-04T12:19:06.807Z,-23864.13
2023-05-04T12:21:11.430Z,-23866.47
2023-05-04T12:23:14.102Z,-23882.59
2023-05-04T12:25:19.213Z,-23886.69
2023-05-04T12:27:21.941Z,-23880.25
2023-05-04T12:29:24.770Z,-23901.38
2023-05-04T12:31:28.600Z,-23880.09
2023-05-04T12:33:31.878Z,-23899.81
2023-05-04T12:35:36.785Z,-23907.47
2023-05-04T12:37:39.647Z,-23904.81
2023-05-04T12:39:42.347Z,-23898.88
2023-05-04T12:41:45.372Z,-23881.50
2023-05-04T12:43:48.111Z,-23874.94
2023-05-04T12:45:51.737Z,-23895.44
2023-05-04T12:47:55.104Z,-23881.34
2023-05-04T12:49:57.902Z,-23893.25
2023-05-04T12:52:02.004Z,-23886.69
2023-05-04T12:54:04.783Z,-23898.88
2023-05-04T12:56:07.861Z,-23897.16
2023-05-04T12:58:11.192Z,-23894.50
2023-05-04T13:00:15.185Z,-23897.47
2023-05-04T13:02:17.978Z,-23893.88
2023-05-04T13:04:20.974Z,-23884.78
2023-05-04T13:06:23.737Z,-23911.38
2023-05-04T13:08:27.761Z,-23912.63
2023-05-04T13:10:31.367Z,-23909.50
2023-05-04T13:12:34.186Z,-23882.28
2023-05-04T13:14:39.430Z,-23887.94
2023-05-04T13:16:42.882Z,-23883.69
2023-05-04T13:18:45.642Z,-23882.91
2023-05-04T13:20:48.392Z,-23889.66
2023-05-04T13:22:52.743Z,-23888.56
2023-05-04T13:24:56.830Z,-23894.81
2023-05-04T13:26:59.559Z,-23912.31
2023-05-04T13:29:03.569Z,-23870.41
2023-05-04T13:31:07.708Z,-23877.91
2023-05-04T13:33:25.031Z,-23871.34
2023-05-04T13:35:31.992Z,-23895.75
2023-05-04T13:37:34.749Z,-23894.34
2023-05-04T13:39:41.910Z,-23882.28
2023-05-04T13:41:46.330Z,-23875.09
2023-05-04T13:43:49.670Z,-23882.44
2023-05-04T13:45:52.532Z,-23886.38
2023-05-04T13:47:55.373Z,-23898.88
2023-05-04T13:49:58.245Z,-23907.47
2023-05-04T13:52:01.020Z,-23910.44
2023-05-04T13:54:04.106Z,-23899.50
2023-05-04T13:56:07.217Z,-23892.47
2023-05-04T13:58:11.508Z,-23889.81
2023-05-04T14:00:17.747Z,-23891.06
2023-05-04T14:02:20.737Z,-23895.28
2023-05-04T14:04:23.866Z,-23898.25
2023-05-04T14:06:29.592Z,-23890.91
2023-05-04T14:08:32.389Z,-23886.53
2023-05-04T14:10:36.720Z,-23875.56
2023-05-04T14:12:40.487Z,-23892.78
2023-05-04T14:14:44.607Z,-23899.81
2023-05-04T14:16:48.005Z,-23878.22
2023-05-04T14:18:51.152Z,-23879.16
2023-05-04T14:20:53.996Z,-23895.44
2023-05-04T14:22:56.738Z,-23891.38
2023-05-04T14:24:59.728Z,-23889.50
2023-05-04T14:27:02.794Z,-23885.13
2023-05-04T14:29:05.773Z,-23888.88
2023-05-04T14:31:09.884Z,-23895.13
2023-05-04T14:33:12.742Z,-23870.56
2023-05-04T14:35:16.372Z,-23883.84
2023-05-04T14:37:19.140Z,-23880.41
2023-05-04T14:39:22.471Z,-23885.56
2023-05-04T14:41:25.273Z,-23888.25
2023-05-04T14:43:28.668Z,-23893.88
2023-05-04T14:45:31.970Z,-23889.03
2023-05-04T14:47:36.251Z,-23893.72
2023-05-04T14:49:42.584Z,-23882.13
2023-05-04T14:51:45.541Z,-23881.03
2023-05-04T14:53:48.326Z,-23879.78
2023-05-04T14:55:51.711Z,-23875.72
2023-05-04T14:57:55.026Z,-23887.63
2023-05-04T14:59:57.734Z,-23897.31
2023-05-04T15:02:00.435Z,-23891.06
2023-05-04T15:04:04.615Z,-23880.41
2023-05-04T15:06:08.710Z,-23876.66
2023-05-04T15:08:11.442Z,-23880.41
2023-05-04T15:10:15.517Z,-23890.75
2023-05-04T15:12:18.521Z,-23882.28
2023-05-04T15:14:22.009Z,-23891.69
2023-05-04T15:16:29.790Z,-23888.41
2023-05-04T15:18:32.793Z,-23889.66
2023-05-04T15:20:39.289Z,-23889.19
2023-05-04T15:22:42.378Z,-23894.34
2023-05-04T15:24:45.249Z,-23885.41
2023-05-04T15:26:48.037Z,-23882.91
2023-05-04T15:28:52.729Z,-23884.47
2023-05-04T15:30:57.020Z,-23884.03
2023-05-04T15:32:59.754Z,-23884.78
2023-05-04T15:35:05.754Z,-23879.16
2023-05-04T15:37:10.579Z,-23879.63
2023-05-04T15:39:13.757Z,-23876.34
2023-05-04T15:41:16.536Z,-23882.75
2023-05-04T15:43:19.263Z,-23877.59
2023-05-04T15:45:22.286Z,-23882.59
2023-05-04T15:47:25.110Z,-23878.84
2023-05-04T15:49:27.896Z,-23880.09
2023-05-04T15:51:31.777Z,-23868.50
2023-05-04T15:53:36.016Z,-23872.59
2023-05-04T15:55:38.784Z,-23878.22
2023-05-04T15:57:41.713Z,-23878.06
2023-05-04T15:59:44.412Z,-23876.19
2023-05-04T16:01:47.159Z,-23873.84
2023-05-04T16:03:49.996Z,-23871.66
2023-05-04T16:05:52.659Z,-23873.22
2023-05-04T16:07:55.810Z,-23877.91
2023-05-04T16:09:59.985Z,-23870.88
2023-05-04T16:12:05.127Z,-23877.13
2023-05-04T16:14:07.858Z,-23872.28
2023-05-04T16:16:10.836Z,-23872.13
2023-05-04T16:18:13.616Z,-23867.25
2023-05-04T16:20:16.438Z,-23866.94
2023-05-04T16:22:19.265Z,-23860.38
2023-05-04T16:24:22.046Z,-23858.34
2023-05-04T16:26:26.209Z,-23862.25
2023-05-04T16:28:29.288Z,-23857.88
2023-05-04T16:30:33.349Z,-23857.56
2023-05-04T16:32:36.194Z,-23851.28
2023-05-04T16:34:39.038Z,-23848.47
2023-05-04T16:36:42.030Z,-23850.34
2023-05-04T16:38:44.926Z,-23854.09
2023-05-04T16:40:47.802Z,-23856.00
2023-05-04T16:42:53.017Z,-23850.66
2023-05-04T16:44:55.813Z,-23845.50
2023-05-04T16:46:58.492Z,-23846.59
2023-05-04T16:49:01.135Z,-23848.63
2023-05-04T16:51:06.052Z,-23844.09
2023-05-04T16:53:08.707Z,-23842.19
2023-05-04T16:55:12.328Z,-23839.69
2023-05-04T16:57:16.407Z,-23844.88
2023-05-04T16:59:20.478Z,-23844.56
2023-05-04T17:01:23.181Z,-23843.44
2023-05-04T17:03:26.178Z,-23845.34
2023-05-04T17:05:28.962Z,-23841.25
2023-05-04T17:07:31.688Z,-23842.81
2023-05-04T17:09:34.373Z,-23840.94
2023-05-04T17:11:37.152Z,-23845.03
2023-05-04T17:13:39.881Z,-23847.22
2023-05-04T17:15:44.009Z,-23847.69
2023-05-04T17:17:47.217Z,-23842.19
2023-05-04T17:19:49.972Z,-23842.66
2023-05-04T17:21:52.824Z,-23837.97
2023-05-04T17:23:55.590Z,-23834.53
2023-05-04T17:25:58.537Z,-23833.56
2023-05-04T17:28:01.345Z,-23832.66
2023-05-04T17:30:04.495Z,-23829.34
2023-05-04T17:32:09.152Z,-23828.09
2023-05-04T17:34:11.879Z,-23831.84
2023-05-04T17:36:14.664Z,-23826.84
2023-05-04T17:38:17.551Z,-23827.16
2023-05-04T17:40:20.361Z,-23825.91
2023-05-04T17:42:23.158Z,-23823.06
2023-05-04T17:44:28.099Z,-23820.88
2023-05-04T17:46:31.020Z,-23820.25
2023-05-04T17:48:36.440Z,-23819.47
2023-05-04T17:50:40.303Z,-23817.44
2023-05-04T17:52:42.972Z,-23817.75
2023-05-04T17:54:45.785Z,-23814.75
2023-05-04T17:56:48.745Z,-23812.09
2023-05-04T17:58:51.435Z,-23808.97
2023-05-04T18:00:54.102Z,-23807.06
2023-05-04T18:02:56.964Z,-23808.03
2023-05-04T18:05:01.115Z,-23806.44
2023-05-04T18:07:03.788Z,-23804.41
2023-05-04T18:09:06.620Z,-23801.91
2023-05-04T18:11:09.366Z,-23797.19
2023-05-04T18:13:12.139Z,-23793.56
2023-05-04T18:15:16.381Z,-23794.84
2023-05-04T18:17:19.101Z,-23792.31
2023-05-04T18:19:24.656Z,-23792.94
2023-05-04T18:21:28.793Z,-23790.13
2023-05-04T18:23:31.748Z,-23787.91
2023-05-04T18:25:34.603Z,-23786.66
2023-05-04T18:27:37.668Z,-23785.09
2023-05-04T18:29:40.398Z,-23784.00
2023-05-04T18:31:43.104Z,-23782.28
2023-05-04T18:33:45.985Z,-23779.75
2023-05-04T18:35:48.765Z,-23778.34
2023-05-04T18:37:52.810Z,-23777.88
2023-05-04T18:39:55.620Z,-23779.44
2023-05-04T18:41:58.479Z,-23777.88
2023-05-04T18:44:01.581Z,-23772.53
2023-05-04T18:46:07.540Z,-23776.00
2023-05-04T18:48:10.398Z,-23770.66
2023-05-04T18:50:13.155Z,-23767.66
2023-05-04T18:52:15.919Z,-23765.94
2023-05-04T18:54:19.956Z,-23765.00
2023-05-04T18:56:22.660Z,-23764.50
2023-05-04T18:58:25.649Z,-23766.25
2023-05-04T19:00:28.675Z,-23759.97
2023-05-04T19:02:31.546Z,-23758.38
2023-05-04T19:04:34.632Z,-23759.97
2023-05-04T19:06:37.300Z,-23757.28
2023-05-04T19:08:40.178Z,-23758.38
2023-05-04T19:10:44.334Z,-23759.34
2023-05-04T19:12:47.185Z,-23753.38
2023-05-04T19:14:51.162Z,-23750.38
2023-05-04T19:16:53.863Z,-23749.75
2023-05-04T19:18:56.681Z,-23750.69
2023-05-04T19:20:59.626Z,-23749.44
2023-05-04T19:23:02.459Z,-23751.00
2023-05-04T19:25:06.482Z,-23744.72
2023-05-04T19:27:10.651Z,-23747.53
2023-05-04T19:29:13.378Z,-23744.88
2023-05-04T19:31:16.168Z,-23736.38
2023-05-04T19:33:19.869Z,-23736.22
2023-05-04T19:35:22.651Z,-23740.00
2023-05-04T19:37:25.410Z,-23736.69
2023-05-04T19:39:28.080Z,-23735.44
2023-05-04T19:41:30.866Z,-23733.84
2023-05-04T19:43:35.064Z,-23737.00
2023-05-04T19:45:37.859Z,-23733.56
2023-05-04T19:47:40.625Z,-23734.81
2023-05-04T19:49:46.514Z,-23733.69
2023-05-04T19:51:49.405Z,-23732.59
2023-05-04T19:53:52.136Z,-23733.06
2023-05-04T19:55:55.099Z,-23730.25
2023-05-04T19:57:57.788Z,-23730.72
2023-05-04T20:00:02.453Z,-23732.28
2023-05-04T20:02:05.154Z,-23730.41
2023-05-04T20:04:08.474Z,-23726.94
2023-05-04T20:06:11.994Z,-23724.91
2023-05-04T20:08:14.775Z,-23725.38
2023-05-04T20:10:17.537Z,-23722.22
2023-05-04T20:12:20.400Z,-23722.06
2023-05-04T20:14:23.184Z,-23719.69
2023-05-04T20:16:27.354Z,-23716.53
2023-05-04T20:18:30.128Z,-23717.81
2023-05-04T20:20:33.018Z,-23713.41
2023-05-04T20:22:35.969Z,-23715.28
2023-05-04T20:24:38.783Z,-23711.34
2023-05-04T20:26:41.440Z,-23710.56
2023-05-04T20:28:44.114Z,-23706.00
2023-05-04T20:30:46.888Z,-23708.53
2023-05-04T20:32:51.024Z,-23707.72
2023-05-04T20:34:53.784Z,-23705.53
2023-05-04T20:36:56.728Z,-23707.41
2023-05-04T20:39:00.030Z,-23705.06
2023-05-04T20:41:06.855Z,-23705.53
2023-05-04T20:43:09.615Z,-23704.91
2023-05-04T20:45:12.531Z,-23702.84
2023-05-04T20:47:15.450Z,-23697.03
2023-05-04T20:49:19.523Z,-23693.88
2023-05-04T20:51:22.379Z,-23697.03
2023-05-04T20:53:26.045Z,-23695.28
2023-05-04T20:55:28.878Z,-23690.72
2023-05-04T20:57:31.658Z,-23694.19
2023-05-04T20:59:34.387Z,-23693.88
2023-05-04T21:01:37.269Z,-23691.34
2023-05-04T21:03:40.352Z,-23686.31
2023-05-04T21:05:44.476Z,-23687.72
2023-05-04T21:07:47.234Z,-23686.47
2023-05-04T21:09:50.189Z,-23682.38
2023-05-04T21:11:52.959Z,-23683.47
2023-05-04T21:13:55.765Z,-23684.13
2023-05-04T21:15:59.567Z,-23682.22
2023-05-04T21:18:02.397Z,-23679.53
2023-05-04T21:20:06.301Z,-23684.13
2023-05-04T21:22:10.655Z,-23680.31
2023-05-04T21:24:14.062Z,-23678.75
2023-05-04T21:26:16.848Z,-23678.13
2023-05-04T21:28:19.611Z,-23681.75
2023-05-04T21:30:22.721Z,-23677.03
2023-05-04T21:32:25.533Z,-23672.75
2023-05-04T21:34:28.920Z,-23672.44
2023-05-04T21:36:31.709Z,-23670.88
2023-05-04T21:38:35.982Z,-23672.75
2023-05-04T21:40:38.682Z,-23673.22
2023-05-04T21:42:41.492Z,-23671.97
2023-05-04T21:44:44.187Z,-23673.41
2023-05-04T21:46:46.908Z,-23673.72
2023-05-04T21:48:51.619Z,-23675.28
2023-05-04T21:50:54.266Z,-23673.72
2023-05-04T21:52:56.980Z,-23673.41
2023-05-04T21:55:01.226Z,-23671.34
2023-05-04T21:57:03.930Z,-23669.78
2023-05-04T21:59:06.801Z,-23666.16
2023-05-04T22:01:09.763Z,-23666.63
2023-05-04T22:03:12.571Z,-23668.97
2023-05-04T22:05:15.422Z,-23666.47
2023-05-04T22:07:18.141Z,-23662.22
2023-05-04T22:09:20.800Z,-23663.63
2023-05-04T22:11:24.818Z,-23665.50
2023-05-04T22:13:27.823Z,-23663.31
2023-05-04T22:15:42.175Z,-23663.31
2023-05-04T22:17:51.929Z,-23663.16
2023-05-04T22:19:54.613Z,-23658.75
2023-05-04T22:21:57.391Z,-23658.88
2023-05-04T22:24:00.514Z,-23656.53
2023-05-04T22:26:03.318Z,-23653.84
2023-05-04T22:28:07.444Z,-23654.00
2023-05-04T22:30:10.904Z,-23653.22
2023-05-04T22:32:13.575Z,-23651.94
2023-05-04T22:34:16.354Z,-23651.94
2023-05-04T22:36:19.098Z,-23658.09
2023-05-04T22:38:21.853Z,-23652.25
2023-05-04T22:40:24.556Z,-23648.00
2023-05-04T22:42:27.230Z,-23649.75
2023-05-04T22:44:31.273Z,-23647.22
2023-05-04T22:46:34.052Z,-23649.25
2023-05-04T22:48:36.858Z,-23648.47
2023-05-04T22:50:39.704Z,-23654.47
2023-05-04T22:52:42.505Z,-23647.53
2023-05-04T22:54:45.574Z,-23648.16
2023-05-04T22:56:48.402Z,-23649.44
2023-05-04T22:58:51.041Z,-23647.53
2023-05-04T23:00:55.144Z,-23643.75
2023-05-04T23:02:57.854Z,-23645.47
2023-05-04T23:05:00.670Z,-23644.22
2023-05-04T23:07:03.377Z,-23646.13
2023-05-04T23:09:06.180Z,-23651.63
2023-05-04T23:11:08.924Z,-23647.84
2023-05-04T23:13:11.679Z,-23645.97
2023-05-04T23:15:14.909Z,-23648.16
2023-05-04T23:17:19.196Z,-23644.06
2023-05-04T23:19:22.243Z,-23643.28
2023-05-04T23:21:25.131Z,-23639.97
2023-05-04T23:23:28.106Z,-23642.97
2023-05-04T23:25:30.825Z,-23646.91
2023-05-04T23:27:33.663Z,-23645.16
2023-05-04T23:29:36.353Z,-23644.69
2023-05-04T23:31:39.165Z,-23644.06